createdAt,value
2023-02-13T00:00:47.251Z,100.00
2023-02-13T00:03:14.366Z,100.00
2023-02-13T00:05:41.437Z,100.00
2023-02-13T00:08:08.402Z,100.00
2023-02-13T00:10:35.394Z,100.00
2023-02-13T00:13:02.417Z,100.00
2023-02-13T00:15:29.457Z,100.00
2023-02-13T00:17:56.475Z,100.00
2023-02-13T00:20:24.476Z,100.00
2023-02-13T00:22:51.470Z,100.00
2023-02-13T00:25:18.729Z,100.00
2023-02-13T00:27:45.780Z,100.00
2023-02-13T00:30:13.590Z,100.00
2023-02-13T00:32:40.559Z,100.00
2023-02-13T00:35:10.637Z,100.00
2023-02-13T00:37:38.295Z,100.00
2023-02-13T00:40:05.941Z,100.00
2023-02-13T00:42:32.871Z,100.00
2023-02-13T00:44:59.802Z,100.00
2023-02-13T00:47:26.862Z,100.00
2023-02-13T00:49:53.791Z,100.00
2023-02-13T00:52:20.682Z,100.00
2023-02-13T00:54:47.849Z,99.60
2023-02-13T00:57:14.796Z,99.51
2023-02-13T00:59:41.738Z,99.41
2023-02-13T01:02:08.679Z,98.97
2023-02-13T01:04:35.711Z,98.23
2023-02-13T01:07:02.642Z,97.86
2023-02-13T01:09:29.608Z,97.77
2023-02-13T01:11:56.560Z,97.69
2023-02-13T01:14:23.521Z,97.38
2023-02-13T01:16:50.443Z,96.97
2023-02-13T01:19:17.538Z,96.67
2023-02-13T01:21:44.682Z,96.14
2023-02-13T01:24:12.031Z,95.55
2023-02-13T01:26:39.572Z,95.47
2023-02-13T01:29:06.961Z,94.61
2023-02-13T01:31:34.386Z,94.26
2023-02-13T01:34:01.413Z,94.14
2023-02-13T01:36:28.593Z,93.80
2023-02-13T01:38:58.223Z,93.60
2023-02-13T01:41:27.379Z,93.13
2023-02-13T01:43:58.106Z,93.59
2023-02-13T01:46:43.404Z,92.93
2023-02-13T01:49:18.787Z,92.95
2023-02-13T01:51:47.558Z,93.11
2023-02-13T01:54:23.251Z,92.60
2023-02-13T01:56:55.908Z,92.40
2023-02-13T01:59:44.564Z,92.63
2023-02-13T02:02:11.505Z,92.69
2023-02-13T02:04:41.409Z,92.59
2023-02-13T02:07:20.696Z,92.60
2023-02-13T02:09:48.441Z,92.28
2023-02-13T02:12:31.915Z,92.77
2023-02-13T02:15:01.534Z,92.76
2023-02-13T02:17:28.616Z,92.24
2023-02-13T02:20:33.668Z,92.53
2023-02-13T02:23:37.346Z,92.06
2023-02-13T02:26:28.756Z,91.94
2023-02-13T02:29:25.187Z,92.49
2023-02-13T02:32:45.676Z,92.43
2023-02-13T02:35:36.635Z,92.38
2023-02-13T02:38:42.064Z,92.25
2023-02-13T02:41:42.590Z,92.54
2023-02-13T02:44:34.942Z,92.62
2023-02-13T02:47:32.699Z,92.70
2023-02-13T02:50:17.771Z,92.73
2023-02-13T02:55:47.672Z,92.93
2023-02-13T02:59:21.180Z,92.77
2023-02-13T03:02:08.400Z,92.88
2023-02-13T03:05:10.190Z,92.76
2023-02-13T03:07:37.084Z,93.17
2023-02-13T03:10:32.084Z,93.13
2023-02-13T03:13:21.602Z,93.27
2023-02-13T03:16:13.548Z,93.47
2023-02-13T03:19:04.382Z,93.47
2023-02-13T03:22:16.504Z,93.41
2023-02-13T03:25:18.723Z,93.14
2023-02-13T03:28:36.674Z,93.23
2023-02-13T03:31:15.365Z,93.21
2023-02-13T03:34:10.997Z,93.20
2023-02-13T03:37:09.566Z,93.51
2023-02-13T03:40:02.204Z,93.50
2023-02-13T03:42:47.448Z,93.04
2023-02-13T03:45:44.374Z,93.26
2023-02-13T03:48:33.160Z,92.84
2023-02-13T03:51:02.719Z,92.78
2023-02-13T03:53:33.547Z,92.86
2023-02-13T03:56:21.970Z,93.01
2023-02-13T03:59:12.040Z,92.92
2023-02-13T04:01:40.114Z,92.74
2023-02-13T04:04:23.303Z,92.96
2023-02-13T04:07:08.870Z,92.77
2023-02-13T04:09:41.459Z,92.93
2023-02-13T04:12:24.839Z,92.42
2023-02-13T04:15:29.455Z,92.51
2023-02-13T04:18:09.643Z,92.60
2023-02-13T04:20:39.811Z,92.70
2023-02-13T04:23:11.565Z,92.36
2023-02-13T04:25:42.073Z,92.79
2023-02-13T04:28:09.321Z,92.99
2023-02-13T04:30:36.361Z,92.65
2023-02-13T04:33:03.303Z,92.61
2023-02-13T04:35:30.421Z,92.92
2023-02-13T04:37:57.295Z,92.38
2023-02-13T04:40:24.370Z,92.69
2023-02-13T04:42:51.266Z,92.46
2023-02-13T04:45:18.285Z,92.81
2023-02-13T04:47:54.359Z,92.63
2023-02-13T04:50:22.357Z,92.34
2023-02-13T04:52:55.577Z,92.76
2023-02-13T04:55:24.412Z,92.26
2023-02-13T04:57:55.864Z,92.67
2023-02-13T05:00:26.117Z,92.69
2023-02-13T05:02:53.901Z,92.50
2023-02-13T05:05:21.489Z,92.17
2023-02-13T05:07:48.502Z,91.89
2023-02-13T05:10:15.743Z,92.27
2023-02-13T05:12:42.642Z,92.11
2023-02-13T05:15:10.376Z,91.71
2023-02-13T05:17:37.299Z,91.60
2023-02-13T05:20:04.426Z,91.41
2023-02-13T05:22:50.116Z,91.53
2023-02-13T05:25:17.235Z,91.49
2023-02-13T05:27:44.177Z,90.87
2023-02-13T05:30:12.180Z,91.13
2023-02-13T05:32:39.236Z,90.87
2023-02-13T05:35:06.562Z,90.24
2023-02-13T05:37:33.466Z,90.43
2023-02-13T05:40:00.335Z,90.40
2023-02-13T05:42:27.311Z,90.13
2023-02-13T05:44:54.269Z,90.05
2023-02-13T05:47:21.128Z,89.49
2023-02-13T05:49:48.039Z,89.52
2023-02-13T05:52:14.951Z,89.56
2023-02-13T05:54:41.830Z,89.21
2023-02-13T05:57:08.741Z,89.28
2023-02-13T05:59:35.635Z,89.15
2023-02-13T06:02:02.529Z,89.12
2023-02-13T06:04:29.470Z,88.98
2023-02-13T06:06:56.374Z,88.96
2023-02-13T06:09:23.320Z,88.43
2023-02-13T06:11:50.209Z,88.49
2023-02-13T06:14:17.149Z,88.10
2023-02-13T06:16:44.186Z,88.33
2023-02-13T06:19:11.086Z,88.21
2023-02-13T06:21:38.531Z,87.75
2023-02-13T06:24:08.283Z,88.00
2023-02-13T06:26:35.584Z,87.48
2023-02-13T06:29:02.484Z,87.98
2023-02-13T06:31:29.466Z,87.39
2023-02-13T06:33:56.486Z,87.64
2023-02-13T06:36:23.372Z,87.19
2023-02-13T06:38:50.378Z,87.10
2023-02-13T06:41:17.300Z,87.03
2023-02-13T06:43:44.148Z,87.12
2023-02-13T06:46:11.160Z,86.80
2023-02-13T06:48:38.131Z,87.13
2023-02-13T06:51:05.513Z,86.56
2023-02-13T06:53:32.403Z,86.58
2023-02-13T06:55:59.388Z,86.71
2023-02-13T06:58:26.717Z,86.43
2023-02-13T07:00:54.057Z,86.85
2023-02-13T07:03:21.337Z,86.34
2023-02-13T07:05:48.298Z,86.62
2023-02-13T07:08:15.218Z,86.63
2023-02-13T07:10:42.602Z,86.70
2023-02-13T07:13:10.242Z,86.25
2023-02-13T07:15:38.282Z,86.50
2023-02-13T07:18:06.318Z,86.77
2023-02-13T07:20:33.893Z,86.60
2023-02-13T07:23:04.023Z,86.31
2023-02-13T07:25:31.530Z,86.63
2023-02-13T07:28:06.463Z,86.37
2023-02-13T07:30:34.759Z,86.56
2023-02-13T07:33:03.500Z,86.29
2023-02-13T07:35:31.009Z,86.86
2023-02-13T07:37:58.107Z,86.75
2023-02-13T07:40:25.031Z,86.51
2023-02-13T07:42:51.928Z,86.75
2023-02-13T07:45:18.858Z,86.54
2023-02-13T07:47:45.842Z,86.28
2023-02-13T07:50:13.318Z,86.63
2023-02-13T07:52:40.360Z,86.51
2023-02-13T07:55:08.297Z,86.39
2023-02-13T07:57:35.184Z,86.66
2023-02-13T08:00:02.356Z,86.24
2023-02-13T08:02:29.316Z,86.46
2023-02-13T08:04:56.196Z,85.98
2023-02-13T08:07:23.100Z,86.06
2023-02-13T08:10:08.610Z,86.46
2023-02-13T08:12:36.666Z,85.97
2023-02-13T08:15:04.394Z,86.00
2023-02-13T08:17:31.321Z,86.09
2023-02-13T08:19:58.870Z,85.98
2023-02-13T08:22:25.853Z,86.10
2023-02-13T08:24:53.042Z,85.69
2023-02-13T08:27:20.144Z,86.04
2023-02-13T08:29:49.369Z,85.75
2023-02-13T08:32:16.557Z,85.63
2023-02-13T08:34:43.543Z,85.34
2023-02-13T08:37:10.466Z,85.36
2023-02-13T08:39:37.755Z,85.27
2023-02-13T08:42:04.635Z,85.13
2023-02-13T08:44:31.639Z,85.36
2023-02-13T08:46:58.529Z,85.45
2023-02-13T08:49:25.501Z,85.33
2023-02-13T08:51:52.425Z,85.30
2023-02-13T08:54:19.323Z,85.06
2023-02-13T08:56:46.235Z,85.16
2023-02-13T08:59:13.369Z,85.31
2023-02-13T09:01:40.695Z,85.23
2023-02-13T09:04:07.772Z,84.87
2023-02-13T09:06:34.831Z,85.03
2023-02-13T09:09:01.711Z,84.91
2023-02-13T09:11:28.681Z,85.11
2023-02-13T09:13:55.732Z,85.00
2023-02-13T09:16:22.844Z,84.78
2023-02-13T09:18:51.359Z,84.79
2023-02-13T09:21:20.829Z,84.89
2023-02-13T09:23:47.746Z,85.31
2023-02-13T09:26:16.227Z,85.10
2023-02-13T09:28:44.141Z,85.08
2023-02-13T09:31:20.073Z,85.61
2023-02-13T09:33:49.081Z,85.43
2023-02-13T09:36:20.662Z,85.81
2023-02-13T09:38:52.428Z,85.69
2023-02-13T09:41:23.335Z,86.23
2023-02-13T09:43:59.182Z,86.21
2023-02-13T09:46:40.717Z,86.43
2023-02-13T09:49:16.076Z,86.80
2023-02-13T09:51:54.369Z,86.88
2023-02-13T09:54:22.275Z,86.98
2023-02-13T09:57:28.902Z,87.33
2023-02-13T10:00:16.374Z,88.04
2023-02-13T10:02:59.314Z,88.55
2023-02-13T10:05:47.119Z,88.93
2023-02-13T10:08:48.232Z,89.30
2023-02-13T10:11:47.432Z,89.73
2023-02-13T10:14:27.270Z,90.19
2023-02-13T10:17:06.628Z,89.60
2023-02-13T10:19:55.432Z,90.13
2023-02-13T10:22:36.202Z,89.99
2023-02-13T10:25:21.604Z,90.19
2023-02-13T10:28:15.888Z,90.11
2023-02-13T10:31:03.873Z,90.42
2023-02-13T10:34:02.948Z,90.35
2023-02-13T10:36:37.974Z,90.92
2023-02-13T10:39:07.794Z,90.96
2023-02-13T10:41:43.703Z,90.81
2023-02-13T10:44:19.484Z,90.81
2023-02-13T10:47:19.095Z,90.88
2023-02-13T10:50:13.244Z,91.07
2023-02-13T10:53:18.410Z,91.13
2023-02-13T10:56:26.186Z,91.02
2023-02-13T10:59:14.838Z,91.30
2023-02-13T11:02:25.537Z,91.24
2023-02-13T11:05:02.727Z,91.60
2023-02-13T11:07:31.590Z,91.57
2023-02-13T11:10:21.261Z,91.00
2023-02-13T11:12:49.369Z,91.29
2023-02-13T11:15:25.645Z,90.94
2023-02-13T11:17:55.545Z,90.42
2023-02-13T11:21:02.349Z,89.92
2023-02-13T11:23:32.232Z,90.02
2023-02-13T11:26:08.707Z,89.83
2023-02-13T11:29:05.184Z,89.33
2023-02-13T11:31:38.191Z,88.97
2023-02-13T11:34:27.533Z,88.14
2023-02-13T11:37:22.551Z,88.12
2023-02-13T11:39:54.353Z,87.73
2023-02-13T11:42:32.458Z,87.33
2023-02-13T11:45:22.833Z,86.69
2023-02-13T11:47:50.046Z,86.94
2023-02-13T11:50:35.185Z,86.52
2023-02-13T11:53:05.027Z,86.44
2023-02-13T11:55:40.552Z,85.97
2023-02-13T11:58:16.575Z,85.62
2023-02-13T12:00:44.114Z,85.29
2023-02-13T12:03:30.829Z,85.00
2023-02-13T12:06:15.657Z,84.98
2023-02-13T12:08:47.374Z,84.84
2023-02-13T12:11:47.352Z,84.51
2023-02-13T12:14:23.738Z,84.30
2023-02-13T12:17:00.366Z,84.06
2023-02-13T12:19:51.549Z,84.10
2023-02-13T12:23:06.091Z,83.80
2023-02-13T12:26:31.244Z,83.27
2023-02-13T12:29:38.808Z,82.96
2023-02-13T12:32:37.934Z,83.27
2023-02-13T12:35:44.869Z,82.79
2023-02-13T12:38:35.341Z,82.44
2023-02-13T12:41:22.708Z,81.87
2023-02-13T12:44:10.207Z,81.82
2023-02-13T12:47:09.245Z,81.81
2023-02-13T12:50:01.091Z,81.81
2023-02-13T12:53:08.868Z,81.26
2023-02-13T12:56:15.016Z,81.26
2023-02-13T12:59:07.296Z,81.20
2023-02-13T13:02:07.691Z,80.99
2023-02-13T13:04:50.855Z,80.82
2023-02-13T13:07:33.567Z,80.68
2023-02-13T13:10:27.190Z,80.69
2023-02-13T13:13:12.384Z,80.69
2023-02-13T13:16:06.325Z,80.49
2023-02-13T13:18:58.149Z,80.15
2023-02-13T13:22:00.421Z,80.24
2023-02-13T13:25:08.955Z,79.96
2023-02-13T13:27:50.500Z,80.06
2023-02-13T13:30:35.689Z,79.77
2023-02-13T13:33:24.674Z,79.96
2023-02-13T13:36:26.385Z,79.96
2023-02-13T13:39:17.336Z,79.89
2023-02-13T13:42:01.022Z,79.56
2023-02-13T13:45:07.904Z,79.49
2023-02-13T13:48:26.085Z,79.53
2023-02-13T13:50:53.831Z,79.35
2023-02-13T13:53:26.390Z,79.50
2023-02-13T13:55:53.314Z,79.75
2023-02-13T13:58:38.022Z,79.77
2023-02-13T14:01:30.657Z,79.45
2023-02-13T14:03:59.094Z,79.52
2023-02-13T14:06:39.843Z,79.41
2023-02-13T14:09:09.748Z,79.58
2023-02-13T14:11:44.589Z,79.44
2023-02-13T14:14:28.025Z,79.59
2023-02-13T14:16:57.963Z,79.58
2023-02-13T14:19:40.503Z,79.74
2023-02-13T14:22:34.803Z,79.48
2023-02-13T14:25:28.030Z,79.70
2023-02-13T14:28:02.428Z,79.55
2023-02-13T14:30:34.310Z,79.39
2023-02-13T14:33:08.088Z,79.55
2023-02-13T14:35:37.940Z,79.41
2023-02-13T14:38:22.276Z,79.53
2023-02-13T14:40:50.794Z,79.67
2023-02-13T14:43:33.109Z,79.40
2023-02-13T14:46:26.749Z,79.33
2023-02-13T14:48:58.609Z,79.53
2023-02-13T14:51:38.749Z,79.62
2023-02-13T14:54:51.541Z,79.37
2023-02-13T14:57:27.694Z,79.13
2023-02-13T15:00:02.493Z,79.17
2023-02-13T15:02:37.577Z,79.40
2023-02-13T15:05:15.611Z,79.43
2023-02-13T15:07:51.539Z,79.10
2023-02-13T15:10:47.098Z,79.34
2023-02-13T15:13:18.483Z,79.61
2023-02-13T15:15:58.938Z,79.79
2023-02-13T15:18:37.352Z,79.62
2023-02-13T15:21:04.579Z,79.60
2023-02-13T15:23:33.746Z,79.40
2023-02-13T15:26:08.872Z,79.22
2023-02-13T15:28:36.538Z,79.68
2023-02-13T15:31:17.343Z,79.36
2023-02-13T15:33:47.579Z,79.61
2023-02-13T15:36:27.234Z,79.32
2023-02-13T15:39:04.250Z,79.57
2023-02-13T15:41:38.826Z,80.01
2023-02-13T15:44:06.931Z,79.75
2023-02-13T15:46:38.628Z,79.82
2023-02-13T15:49:19.317Z,79.88
2023-02-13T15:51:47.513Z,79.91
2023-02-13T15:54:32.920Z,79.71
2023-02-13T15:57:04.808Z,80.00
2023-02-13T15:59:37.195Z,80.02
2023-02-13T16:02:13.012Z,80.29
2023-02-13T16:04:41.738Z,80.05
2023-02-13T16:07:13.191Z,80.02
2023-02-13T16:09:40.383Z,80.04
2023-02-13T16:12:18.337Z,80.14
2023-02-13T16:14:54.690Z,80.42
2023-02-13T16:17:30.921Z,80.27
2023-02-13T16:20:05.433Z,80.05
2023-02-13T16:22:39.205Z,80.47
2023-02-13T16:25:12.082Z,80.56
2023-02-13T16:27:58.207Z,80.75
2023-02-13T16:30:37.448Z,80.91
2023-02-13T16:33:16.661Z,81.02
2023-02-13T16:36:11.417Z,80.96
2023-02-13T16:38:49.406Z,80.64
2023-02-13T16:41:19.284Z,81.09
2023-02-13T16:43:52.513Z,81.15
2023-02-13T16:46:28.420Z,81.22
2023-02-13T16:48:58.789Z,81.13
2023-02-13T16:51:40.278Z,81.08
2023-02-13T16:54:29.999Z,81.61
2023-02-13T16:57:06.883Z,81.44
2023-02-13T17:00:02.247Z,81.87
2023-02-13T17:02:34.878Z,81.67
2023-02-13T17:05:08.171Z,81.51
2023-02-13T17:07:44.330Z,81.76
2023-02-13T17:10:33.966Z,81.51
2023-02-13T17:13:11.466Z,81.54
2023-02-13T17:15:43.900Z,81.24
2023-02-13T17:18:11.018Z,81.36
2023-02-13T17:20:41.960Z,81.57
2023-02-13T17:23:23.424Z,81.88
2023-02-13T17:25:53.670Z,81.40
2023-02-13T17:28:22.912Z,81.68
2023-02-13T17:30:53.130Z,81.61
2023-02-13T17:33:34.235Z,81.52
2023-02-13T17:36:02.168Z,81.52
2023-02-13T17:38:29.076Z,81.60
2023-02-13T17:40:56.335Z,82.06
2023-02-13T17:43:25.321Z,81.92
2023-02-13T17:45:52.535Z,81.97
2023-02-13T17:48:19.743Z,82.06
2023-02-13T17:50:49.333Z,81.86
2023-02-13T17:53:23.272Z,82.00
2023-02-13T17:55:50.407Z,81.56
2023-02-13T17:58:17.282Z,81.55
2023-02-13T18:00:44.371Z,81.52
2023-02-13T18:03:12.747Z,82.12
2023-02-13T18:05:40.277Z,81.92
2023-02-13T18:08:08.389Z,81.68
2023-02-13T18:10:37.227Z,81.85
2023-02-13T18:13:04.673Z,81.54
2023-02-13T18:15:39.393Z,81.63
2023-02-13T18:18:06.960Z,81.40
2023-02-13T18:20:34.158Z,81.46
2023-02-13T18:23:01.142Z,81.34
2023-02-13T18:25:29.105Z,81.58
2023-02-13T18:27:56.138Z,81.37
2023-02-13T18:30:23.442Z,81.15
2023-02-13T18:32:55.615Z,81.32
2023-02-13T18:35:23.464Z,81.70
2023-02-13T18:37:50.894Z,81.22
2023-02-13T18:40:18.220Z,81.69
2023-02-13T18:42:45.380Z,81.51
2023-02-13T18:45:12.575Z,81.35
2023-02-13T18:47:39.454Z,81.62
2023-02-13T18:50:07.883Z,81.57
2023-02-13T18:52:35.272Z,81.34
2023-02-13T18:55:02.637Z,81.12
2023-02-13T18:57:29.572Z,81.41
2023-02-13T18:59:56.788Z,81.01
2023-02-13T19:02:23.821Z,81.17
2023-02-13T19:04:50.856Z,81.24
2023-02-13T19:07:17.797Z,80.67
2023-02-13T19:09:44.812Z,80.87
2023-02-13T19:12:11.773Z,80.50
2023-02-13T19:14:39.754Z,80.73
2023-02-13T19:17:08.490Z,80.47
2023-02-13T19:19:35.437Z,80.61
2023-02-13T19:22:03.425Z,80.18
2023-02-13T19:24:30.449Z,80.18
2023-02-13T19:26:57.324Z,79.91
2023-02-13T19:29:24.320Z,80.25
2023-02-13T19:31:51.197Z,79.83
2023-02-13T19:34:18.166Z,80.12
2023-02-13T19:36:45.069Z,79.83
2023-02-13T19:39:12.171Z,80.10
2023-02-13T19:41:40.742Z,79.60
2023-02-13T19:44:08.746Z,79.48
2023-02-13T19:46:37.898Z,79.23
2023-02-13T19:49:05.912Z,79.38
2023-02-13T19:51:34.610Z,78.94
2023-02-13T19:54:05.520Z,79.44
2023-02-13T19:56:35.364Z,79.12
2023-02-13T19:59:02.494Z,79.01
2023-02-13T20:01:30.305Z,78.89
2023-02-13T20:03:57.778Z,78.70
2023-02-13T20:06:31.382Z,78.76
2023-02-13T20:09:02.197Z,78.77
2023-02-13T20:11:29.441Z,78.29
2023-02-13T20:14:02.245Z,78.09
2023-02-13T20:16:34.166Z,78.19
2023-02-13T20:19:06.314Z,77.95
2023-02-13T20:21:34.394Z,78.49
2023-02-13T20:24:05.189Z,78.30
2023-02-13T20:26:32.355Z,77.87
2023-02-13T20:28:59.730Z,78.26
2023-02-13T20:31:29.288Z,77.66
2023-02-13T20:33:57.326Z,77.67
2023-02-13T20:36:30.882Z,77.80
2023-02-13T20:39:01.251Z,77.60
2023-02-13T20:41:32.344Z,77.58
2023-02-13T20:44:03.278Z,77.38
2023-02-13T20:46:36.604Z,77.74
2023-02-13T20:49:03.955Z,77.87
2023-02-13T20:51:31.397Z,77.95
2023-02-13T20:53:59.904Z,77.93
2023-02-13T20:56:28.279Z,77.91
2023-02-13T20:59:00.491Z,77.79
2023-02-13T21:01:34.931Z,77.46
2023-02-13T21:04:02.471Z,77.51
2023-02-13T21:06:32.693Z,77.62
2023-02-13T21:08:59.902Z,77.81
2023-02-13T21:11:28.362Z,77.65
2023-02-13T21:13:57.387Z,77.88
2023-02-13T21:16:28.316Z,77.70
2023-02-13T21:18:58.652Z,77.42
2023-02-13T21:21:29.694Z,77.54
2023-02-13T21:24:00.366Z,77.55
2023-02-13T21:26:28.264Z,77.22
2023-02-13T21:28:55.487Z,77.67
2023-02-13T21:31:31.497Z,77.48
2023-02-13T21:34:04.645Z,77.66
2023-02-13T21:36:33.887Z,77.43
2023-02-13T21:39:02.154Z,77.65
2023-02-13T21:41:29.158Z,77.77
2023-02-13T21:43:56.056Z,78.10
2023-02-13T21:46:26.843Z,77.68
2023-02-13T21:48:56.371Z,77.71
2023-02-13T21:51:25.304Z,77.68
2023-02-13T21:53:53.225Z,77.62
2023-02-13T21:56:26.630Z,77.55
2023-02-13T21:58:54.082Z,77.27
2023-02-13T22:01:35.010Z,77.59
2023-02-13T22:04:05.890Z,77.62
2023-02-13T22:06:36.031Z,77.23
2023-02-13T22:09:13.754Z,77.62
2023-02-13T22:11:41.795Z,77.40
2023-02-13T22:14:17.055Z,77.52
2023-02-13T22:16:45.491Z,76.98
2023-02-13T22:19:15.372Z,77.25
2023-02-13T22:21:42.593Z,77.31
2023-02-13T22:24:09.733Z,77.37
2023-02-13T22:26:40.316Z,77.29
2023-02-13T22:29:11.157Z,77.32
2023-02-13T22:31:38.711Z,77.68
2023-02-13T22:34:06.383Z,77.25
2023-02-13T22:36:40.993Z,77.55
2023-02-13T22:39:10.020Z,77.54
2023-02-13T22:41:37.499Z,77.41
2023-02-13T22:44:04.695Z,77.47
2023-02-13T22:46:33.319Z,77.29
2023-02-13T22:49:00.871Z,77.44
2023-02-13T22:51:32.703Z,76.91
2023-02-13T22:54:00.497Z,77.00
2023-02-13T22:56:29.518Z,77.50
2023-02-13T22:58:56.854Z,77.21
2023-02-13T23:01:27.296Z,77.40
2023-02-13T23:03:55.203Z,77.05
2023-02-13T23:06:23.448Z,76.76
2023-02-13T23:08:52.732Z,77.31
2023-02-13T23:11:41.865Z,77.18
2023-02-13T23:14:10.074Z,76.90
2023-02-13T23:16:58.031Z,77.03
2023-02-13T23:19:27.340Z,76.96
2023-02-13T23:21:54.296Z,76.75
2023-02-13T23:24:21.806Z,77.06
2023-02-13T23:26:48.712Z,76.86
2023-02-13T23:29:16.232Z,76.60
2023-02-13T23:31:43.247Z,76.50
2023-02-13T23:34:10.304Z,76.44
2023-02-13T23:36:37.337Z,76.44
2023-02-13T23:39:04.290Z,76.93
2023-02-13T23:41:31.199Z,76.79
2023-02-13T23:43:58.132Z,76.78
2023-02-13T23:46:25.030Z,76.54
2023-02-13T23:48:52.097Z,76.43
2023-02-13T23:51:20.972Z,76.72
2023-02-13T23:53:47.878Z,76.99
2023-02-13T23:56:14.876Z,76.76
2023-02-13T23:58:41.829Z,76.44
